Massillon, OH

2:23 AM EDT on August 24, 2016 (GMT -0400)
KC8WVG | | Change Station

Elev 1020 ft 40.81 °N, 81.52 °W | Updated 4 minutes ago

Clear
Clear
62.1 °F
Feels Like 62.1 °F
N
0.0
Wind Variable Wind from SE

Today
High -- | Low -- °F
--% Chance of Precip.
Yesterday
High -- | Low -- °F
Precip. -- in
Pressure 30.22 in
Visibility 10.0 miles
Clouds Clear
Dew Point 56 °F
Humidity 80%
Rainfall 0.00 in
Snow Depth Not available.
6:45 AM 8:10 PM
Waning Gibbous, 60% visible
METAR KCAK 240551Z 14003KT 10SM CLR 19/13 A3024 RMK AO2 SLP231 T01890133 10239 20172 58008
Pressure 30.22 in
Visibility 10.0 miles
Clouds Clear
Dew Point 56 °F
Humidity 80%
Rainfall 0.00 in
Snow Depth Not available.
6:45 AM 8:10 PM
Waning Gibbous, 60% visible
METAR KCAK 240551Z 14003KT 10SM CLR 19/13 A3024 RMK AO2 SLP231 T01890133 10239 20172 58008

10-Day Weather Forecast

Almanac

Astronomy

Aug. 24, 2016 Rise Set
Actual Time
Civil Twilight
Nautical Twilight
Astronomical Twilight
Moon
Length of Visible Light
Length of Day
Tomorrow will be .
, % of the Moon is Illuminated

Today's Extremes

State Highs State Lows

Community

WunderPhotos

Upload Photos

1,934,554 photos uploaded!

WunderBlog® & News

Nearby

Air Quality

  Air Quality AQ Index Pollutant
Not available.

Snow Depth

Station Depth Elevation

Earthquake Activity

City Distance Mag. Time & Date
Minimum magnitude displayed is 2.5.

Coastal Water Temperatures

Place Temperature

Stations

Nearby Weather Stations

Station Location Temp. Windchill Dew Point Humidity Wind Precip. Elev Updated Type
                   

Watches & Warnings

There are currently no watches in effect.